Time;durP1;ratioP1;P1;durP2;ratioP2;P2;SDS_P1;SDS_P2;PMS_P1;PMS_P2;Temp;Humidity;BMP_temperature;BMP_pressure;BME280_temperature;BME280_humidity;BME280_pressure;Samples;Min_cycle;Max_cycle;Signal;HPM_P1;HPM_P2
2021/08/21 00:00:11;;;;;;;16.63;11.63;;;15.30;99.90;;;;;;5081846;28;20198;-75
2021/08/21 00:02:39;;;;;;;13.43;9.80;;;15.30;99.90;;;;;;5083417;28;20209;-75
2021/08/21 00:05:11;;;;;;;11.93;9.60;;;15.30;99.90;;;;;;5084521;28;20198;-75
2021/08/21 00:07:43;;;;;;;10.77;9.50;;;15.20;99.90;;;;;;5076428;28;20180;-75
2021/08/21 00:10:13;;;;;;;14.40;9.67;;;15.20;99.90;;;;;;5074881;28;20205;-75
2021/08/21 00:12:43;;;;;;;11.50;9.40;;;15.20;99.90;;;;;;5077822;28;20184;-74
2021/08/21 00:15:17;;;;;;;10.87;9.60;;;15.10;99.90;;;;;;5075675;28;20185;-75
2021/08/21 00:17:45;;;;;;;11.03;8.93;;;15.10;99.90;;;;;;5081233;28;20183;-75
2021/08/21 00:20:15;;;;;;;10.17;8.70;;;15.10;99.90;;;;;;5080227;28;20440;-75
2021/08/21 00:22:44;;;;;;;10.13;9.07;;;15.10;99.90;;;;;;5079492;28;20191;-75
2021/08/21 00:25:14;;;;;;;11.70;9.03;;;15.10;99.90;;;;;;5081818;28;20200;-75
2021/08/21 00:27:44;;;;;;;13.07;9.77;;;15.10;99.90;;;;;;5079498;28;20187;-75
2021/08/21 00:30:16;;;;;;;14.20;10.00;;;15.10;99.90;;;;;;5079818;28;20208;-74
2021/08/21 00:32:45;;;;;;;15.17;11.00;;;15.10;99.90;;;;;;5079928;28;20262;-75
2021/08/21 00:35:14;;;;;;;17.67;11.50;;;15.00;99.90;;;;;;5075612;28;20328;-75
2021/08/21 00:37:42;;;;;;;11.13;10.00;;;15.00;99.90;;;;;;5082677;28;20395;-75
2021/08/21 00:40:12;;;;;;;13.03;9.73;;;15.00;99.90;;;;;;5078748;28;20603;-75
2021/08/21 00:42:40;;;;;;;11.27;9.27;;;15.00;99.90;;;;;;5074061;28;20694;-75
2021/08/21 00:45:11;;;;;;;10.47;9.37;;;14.90;99.90;;;;;;5097619;28;20195;-75
2021/08/21 00:47:39;;;;;;;11.63;9.30;;;14.90;99.90;;;;;;5078356;28;20191;-75
2021/08/21 00:50:08;;;;;;;11.87;8.57;;;14.90;99.90;;;;;;5081426;28;20184;-75
2021/08/21 00:52:38;;;;;;;11.17;8.63;;;14.90;99.90;;;;;;5080026;28;20191;-75
2021/08/21 00:55:07;;;;;;;9.30;8.37;;;14.90;99.90;;;;;;5081967;28;20316;-75
2021/08/21 00:57:35;;;;;;;9.47;8.43;;;14.80;99.90;;;;;;5082665;28;20235;-75
2021/08/21 01:00:05;;;;;;;15.87;9.60;;;14.80;99.90;;;;;;5084009;28;20179;-75
2021/08/21 01:02:35;;;;;;;14.17;9.90;;;14.80;99.90;;;;;;5079570;28;20183;-74
2021/08/21 01:05:06;;;;;;;12.57;9.87;;;14.80;99.90;;;;;;5079830;28;20187;-75
2021/08/21 01:07:37;;;;;;;11.10;9.60;;;14.80;99.90;;;;;;5074597;28;20472;-75
2021/08/21 01:10:08;;;;;;;11.37;9.67;;;14.70;99.90;;;;;;5078241;28;20187;-75
2021/08/21 01:12:37;;;;;;;13.77;9.97;;;14.70;99.90;;;;;;5080650;28;20246;-75
2021/08/21 01:15:07;;;;;;;14.13;10.97;;;14.70;99.90;;;;;;5080524;28;20191;-75
2021/08/21 01:17:37;;;;;;;13.13;11.07;;;14.70;99.90;;;;;;5076274;28;20335;-74
2021/08/21 01:20:07;;;;;;;11.63;9.43;;;14.70;99.90;;;;;;5079490;28;20301;-75
2021/08/21 01:22:39;;;;;;;12.17;9.60;;;14.70;99.90;;;;;;5079295;28;20215;-74
2021/08/21 01:25:14;;;;;;;12.93;10.10;;;14.70;99.90;;;;;;5082776;28;20250;-75
2021/08/21 01:27:44;;;;;;;13.37;11.03;;;14.70;99.90;;;;;;5074476;28;20478;-75
2021/08/21 01:30:13;;;;;;;14.53;10.67;;;14.70;99.90;;;;;;5080993;28;20188;-75
2021/08/21 01:32:43;;;;;;;16.37;11.60;;;14.80;99.90;;;;;;5079517;28;20222;-75
2021/08/21 01:35:12;;;;;;;14.73;11.93;;;14.80;99.90;;;;;;5079677;28;20195;-75
2021/08/21 01:37:43;;;;;;;19.40;12.97;;;14.80;99.90;;;;;;5065719;28;20169;-75
2021/08/21 01:40:12;;;;;;;17.27;12.93;;;14.80;99.90;;;;;;5079811;28;20176;-75
2021/08/21 01:42:40;;;;;;;17.93;11.97;;;14.90;99.90;;;;;;5077088;28;20370;-75
2021/08/21 01:45:13;;;;;;;20.00;12.73;;;14.90;99.90;;;;;;5084765;28;20213;-75
2021/08/21 01:47:44;;;;;;;17.70;12.20;;;14.90;99.90;;;;;;5085733;28;20437;-75
2021/08/21 01:50:17;;;;;;;18.70;13.37;;;14.90;99.90;;;;;;5081661;28;20294;-75
2021/08/21 01:52:46;;;;;;;21.00;13.47;;;14.90;99.90;;;;;;5077252;28;20207;-75
2021/08/21 01:55:15;;;;;;;16.90;12.83;;;15.00;99.90;;;;;;5079561;28;20311;-75
2021/08/21 01:57:45;;;;;;;23.47;13.23;;;15.00;99.90;;;;;;5086301;28;20184;-75
2021/08/21 02:00:15;;;;;;;18.07;12.70;;;15.00;99.90;;;;;;5083193;28;20176;-75
2021/08/21 02:02:44;;;;;;;15.53;11.70;;;15.00;99.90;;;;;;5074113;28;20223;-75
2021/08/21 02:05:12;;;;;;;16.47;12.23;;;15.00;99.90;;;;;;5073865;28;20189;-75
2021/08/21 02:07:41;;;;;;;20.00;12.30;;;15.00;99.90;;;;;;5085569;28;20297;-75
2021/08/21 02:10:10;;;;;;;16.07;12.23;;;15.10;99.90;;;;;;5078412;28;20412;-74
2021/08/21 02:12:38;;;;;;;22.97;14.17;;;15.00;99.90;;;;;;5080016;28;20205;-75
2021/08/21 02:15:13;;;;;;;24.77;14.13;;;15.00;99.90;;;;;;5086407;28;20216;-75
2021/08/21 02:17:43;;;;;;;25.20;14.40;;;15.00;99.90;;;;;;5079732;28;20187;-75
2021/08/21 02:20:13;;;;;;;21.37;13.80;;;15.00;99.90;;;;;;5081321;28;20180;-75
2021/08/21 02:22:45;;;;;;;18.30;13.00;;;15.00;99.90;;;;;;5079720;28;20239;-75
2021/08/21 02:25:15;;;;;;;20.00;12.60;;;15.00;99.90;;;;;;5078438;28;20414;-75
2021/08/21 02:27:54;;;;;;;20.63;14.37;;;14.90;99.90;;;;;;5081886;28;20426;-75
2021/08/21 02:30:23;;;;;;;18.80;13.17;;;14.90;99.90;;;;;;5080248;28;20390;-75
2021/08/21 02:32:53;;;;;;;26.77;15.13;;;14.90;99.90;;;;;;5077697;28;20200;-76
2021/08/21 02:35:21;;;;;;;23.77;14.23;;;14.90;99.90;;;;;;5087014;28;20193;-75
2021/08/21 02:37:49;;;;;;;22.43;13.00;;;15.00;99.90;;;;;;5081722;28;20191;-76
2021/08/21 02:40:18;;;;;;;22.87;13.53;;;15.00;99.90;;;;;;5080531;28;20188;-75
2021/08/21 02:42:46;;;;;;;26.03;14.50;;;14.90;99.90;;;;;;5088165;28;20174;-75
2021/08/21 02:45:15;;;;;;;27.97;16.03;;;14.90;99.90;;;;;;5085088;28;20181;-75
2021/08/21 02:47:43;;;;;;;23.53;15.50;;;14.90;99.90;;;;;;5083142;28;20193;-75
2021/08/21 02:50:13;;;;;;;29.30;15.87;;;14.80;99.90;;;;;;5084975;28;20458;-75
2021/08/21 02:52:41;;;;;;;28.37;15.40;;;14.80;99.90;;;;;;5083080;28;20208;-75
2021/08/21 02:55:11;;;;;;;24.73;14.20;;;14.80;99.90;;;;;;5083070;28;20327;-75
2021/08/21 02:57:39;;;;;;;23.33;14.27;;;14.70;99.90;;;;;;5081507;28;20183;-75
2021/08/21 03:00:08;;;;;;;27.30;14.70;;;14.70;99.90;;;;;;5088103;28;20172;-75
2021/08/21 03:02:37;;;;;;;22.87;14.90;;;14.70;99.90;;;;;;5078209;28;20188;-75
2021/08/21 03:05:06;;;;;;;20.00;13.80;;;14.60;99.90;;;;;;5083628;28;20432;-73
2021/08/21 03:07:36;;;;;;;22.33;13.70;;;14.60;99.90;;;;;;5077598;28;20177;-75
2021/08/21 03:10:05;;;;;;;25.13;14.57;;;14.50;99.90;;;;;;5087767;28;20415;-75
2021/08/21 03:12:34;;;;;;;24.57;14.50;;;14.50;99.90;;;;;;5081853;28;20359;-75
2021/08/21 03:15:02;;;;;;;23.43;14.10;;;14.50;99.90;;;;;;5084886;28;20203;-75
2021/08/21 03:17:31;;;;;;;22.93;14.30;;;14.50;99.90;;;;;;5079096;28;20192;-73
2021/08/21 03:19:59;;;;;;;24.80;14.43;;;14.50;99.90;;;;;;5079365;28;20184;-75
2021/08/21 03:22:27;;;;;;;21.90;13.30;;;14.50;99.90;;;;;;5076784;28;20176;-75
2021/08/21 03:24:57;;;;;;;21.43;12.87;;;14.50;99.90;;;;;;5082776;28;20183;-75
2021/08/21 03:27:25;;;;;;;21.53;13.57;;;14.40;99.90;;;;;;5080491;28;20234;-75
2021/08/21 03:29:53;;;;;;;21.30;12.90;;;14.40;99.90;;;;;;5082673;28;20409;-72
2021/08/21 03:32:21;;;;;;;22.37;13.23;;;14.30;99.90;;;;;;5083251;28;20224;-75
2021/08/21 03:34:50;;;;;;;19.43;12.00;;;14.30;99.90;;;;;;5082753;28;20172;-75
2021/08/21 03:37:18;;;;;;;20.63;11.50;;;14.30;99.90;;;;;;5086599;28;20183;-75
2021/08/21 03:39:46;;;;;;;18.63;11.27;;;14.30;99.90;;;;;;5087711;28;20191;-75
2021/08/21 03:42:16;;;;;;;17.33;11.50;;;14.30;99.90;;;;;;5081747;28;20180;-75
2021/08/21 03:44:44;;;;;;;15.83;11.50;;;14.30;99.90;;;;;;5084880;28;20288;-75
2021/08/21 03:47:13;;;;;;;17.97;11.57;;;14.20;99.90;;;;;;5080709;28;20179;-75
2021/08/21 03:49:41;;;;;;;22.60;13.80;;;14.20;99.90;;;;;;5079484;28;20192;-75
2021/08/21 03:52:09;;;;;;;19.57;12.70;;;14.20;99.90;;;;;;5063260;28;20200;-75
2021/08/21 03:54:37;;;;;;;17.73;12.60;;;14.20;99.90;;;;;;5081880;28;20183;-75
2021/08/21 03:57:06;;;;;;;17.67;11.20;;;14.20;99.90;;;;;;5079956;28;20195;-76
2021/08/21 03:59:35;;;;;;;19.23;11.97;;;14.20;99.90;;;;;;5094824;28;20210;-75
2021/08/21 04:02:04;;;;;;;17.10;11.23;;;14.20;99.90;;;;;;5087392;28;20465;-73
2021/08/21 04:04:32;;;;;;;19.70;11.83;;;14.20;99.90;;;;;;5081407;28;20391;-74
2021/08/21 04:07:00;;;;;;;24.53;13.33;;;14.20;99.90;;;;;;5088520;28;20202;-76
2021/08/21 04:09:28;;;;;;;23.67;13.27;;;14.20;99.90;;;;;;5087146;28;20259;-75
2021/08/21 04:11:57;;;;;;;22.33;13.97;;;14.30;99.90;;;;;;5079418;28;20296;-75
2021/08/21 04:15:09;;;;;;;24.67;15.07;;;14.30;99.90;;;;;;5074375;28;20446;-75
2021/08/21 04:17:37;;;;;;;25.97;14.90;;;14.40;99.90;;;;;;5079584;28;20180;-75
2021/08/21 04:20:07;;;;;;;18.80;13.00;;;14.50;99.90;;;;;;5081153;28;20274;-75
2021/08/21 04:22:35;;;;;;;24.00;14.13;;;14.50;99.90;;;;;;5083100;28;20176;-75
2021/08/21 04:25:04;;;;;;;21.77;12.43;;;14.50;99.90;;;;;;5082062;28;20176;-75
2021/08/21 04:27:32;;;;;;;18.47;11.63;;;14.40;99.90;;;;;;5081965;28;20187;-75
2021/08/21 04:30:00;;;;;;;16.73;11.77;;;14.40;99.90;;;;;;5083926;28;20172;-75
2021/08/21 04:32:30;;;;;;;14.37;10.97;;;14.40;99.90;;;;;;5082368;28;20216;-75
2021/08/21 04:34:58;;;;;;;16.77;11.63;;;14.30;99.90;;;;;;5081344;28;20208;-75
2021/08/21 04:37:26;;;;;;;15.43;10.73;;;14.30;99.90;;;;;;5085742;28;20230;-75
2021/08/21 04:39:55;;;;;;;16.73;11.70;;;14.20;99.90;;;;;;5082424;28;20234;-75
2021/08/21 04:42:23;;;;;;;21.27;13.10;;;14.20;99.90;;;;;;5079446;28;20180;-75
2021/08/21 04:44:51;;;;;;;22.47;13.57;;;14.20;99.90;;;;;;5076064;28;20176;-75
2021/08/21 04:47:19;;;;;;;21.00;12.20;;;14.20;99.90;;;;;;5081098;28;20177;-75
2021/08/21 04:49:49;;;;;;;19.00;12.17;;;14.20;99.90;;;;;;5074465;28;20208;-75
2021/08/21 04:52:17;;;;;;;24.00;13.03;;;14.20;99.90;;;;;;5075500;28;20181;-75
2021/08/21 04:54:45;;;;;;;15.07;11.07;;;14.20;99.90;;;;;;5096562;28;20176;-75
2021/08/21 04:57:14;;;;;;;17.20;12.37;;;14.10;99.90;;;;;;5082820;28;20315;-75
2021/08/21 04:59:42;;;;;;;17.90;12.30;;;14.10;99.90;;;;;;5084171;28;20187;-75
2021/08/21 05:02:10;;;;;;;20.57;14.03;;;14.10;99.90;;;;;;5077781;28;20187;-75
2021/08/21 05:04:38;;;;;;;22.87;14.53;;;14.10;99.90;;;;;;5077665;28;20176;-75
2021/08/21 05:07:08;;;;;;;21.63;13.63;;;14.10;99.90;;;;;;5079085;28;20184;-75
2021/08/21 05:09:37;;;;;;;22.57;14.73;;;14.20;99.90;;;;;;5079628;28;20461;-75
2021/08/21 05:12:05;;;;;;;18.57;12.77;;;14.20;99.90;;;;;;5080825;28;20184;-75
2021/08/21 05:14:34;;;;;;;18.47;13.17;;;14.20;99.90;;;;;;5080960;28;20206;-75
2021/08/21 05:17:02;;;;;;;17.73;12.53;;;14.20;99.90;;;;;;5078964;28;20176;-75
2021/08/21 05:19:34;;;;;;;16.60;12.20;;;14.20;99.90;;;;;;5081748;28;20292;-75
2021/08/21 05:22:21;;;;;;;15.10;10.63;;;14.20;99.90;;;;;;5079831;28;20179;-75
2021/08/21 05:24:51;;;;;;;20.60;13.53;;;14.20;99.90;;;;;;5080652;28;20180;-75
2021/08/21 05:27:21;;;;;;;22.63;13.67;;;14.20;99.90;;;;;;5076172;28;20303;-75
2021/08/21 05:29:49;;;;;;;17.60;12.97;;;14.30;99.90;;;;;;5096446;28;20183;-75
2021/08/21 05:32:17;;;;;;;18.17;12.33;;;14.30;99.90;;;;;;5077946;28;20216;-75
2021/08/21 05:34:45;;;;;;;16.37;12.33;;;14.40;99.90;;;;;;5074578;28;20223;-75
2021/08/21 05:37:14;;;;;;;19.57;13.20;;;14.50;99.90;;;;;;5077877;28;20180;-75
2021/08/21 05:39:42;;;;;;;23.37;14.50;;;14.50;99.90;;;;;;5087834;28;20176;-75
2021/08/21 05:42:12;;;;;;;23.07;15.80;;;14.60;99.90;;;;;;5078517;28;20180;-75
2021/08/21 05:44:40;;;;;;;24.10;15.57;;;14.80;99.90;;;;;;5074588;28;20176;-75
2021/08/21 05:47:08;;;;;;;26.50;15.43;;;14.90;99.90;;;;;;5085620;28;20168;-76
2021/08/21 05:49:36;;;;;;;23.10;16.30;;;15.00;99.90;;;;;;5084169;28;20180;-75
2021/08/21 05:52:05;;;;;;;23.57;15.80;;;15.10;99.90;;;;;;5083168;28;20277;-75
2021/08/21 05:54:33;;;;;;;22.33;15.17;;;15.20;99.90;;;;;;5078920;28;20204;-75
2021/08/21 05:57:02;;;;;;;23.73;16.27;;;15.40;99.90;;;;;;5080922;28;20226;-75
2021/08/21 05:59:31;;;;;;;28.33;15.30;;;15.40;99.90;;;;;;5079507;28;20258;-73
2021/08/21 06:02:00;;;;;;;20.97;14.53;;;15.50;99.90;;;;;;5080283;28;20448;-76
2021/08/21 06:04:28;;;;;;;21.73;13.87;;;15.60;99.90;;;;;;5079854;28;20227;-75
2021/08/21 06:06:57;;;;;;;24.43;14.80;;;15.60;99.90;;;;;;5078442;28;20184;-75
2021/08/21 06:09:25;;;;;;;21.37;14.33;;;15.60;99.90;;;;;;5075608;28;20187;-75
2021/08/21 06:11:53;;;;;;;15.97;12.40;;;15.60;99.90;;;;;;5071856;28;20219;-75
2021/08/21 06:14:22;;;;;;;18.60;12.90;;;15.70;99.90;;;;;;5076108;28;20447;-75
2021/08/21 06:16:51;;;;;;;21.10;13.13;;;15.90;99.90;;;;;;5084295;28;20180;-75
2021/08/21 06:19:19;;;;;;;16.97;12.33;;;16.00;99.90;;;;;;5082194;28;20177;-75
2021/08/21 06:21:48;;;;;;;15.20;11.10;;;16.10;99.90;;;;;;5080509;28;20443;-75
2021/08/21 06:24:16;;;;;;;13.37;10.93;;;16.20;99.90;;;;;;5100310;28;20304;-75
2021/08/21 06:26:44;;;;;;;14.53;11.07;;;16.40;99.90;;;;;;5082945;28;20193;-75
2021/08/21 06:29:12;;;;;;;13.03;9.70;;;16.50;99.90;;;;;;5084805;28;20209;-75
2021/08/21 06:31:41;;;;;;;14.00;10.00;;;16.70;99.90;;;;;;5093403;28;20217;-75
2021/08/21 06:34:10;;;;;;;15.43;10.13;;;16.80;99.90;;;;;;5084592;28;20245;-75
2021/08/21 06:36:39;;;;;;;12.50;9.50;;;16.90;99.90;;;;;;5078034;28;20324;-75
2021/08/21 06:39:07;;;;;;;14.30;9.70;;;17.00;99.90;;;;;;5087604;28;20198;-75
2021/08/21 06:41:35;;;;;;;14.47;9.10;;;17.20;99.90;;;;;;5082597;28;20183;-75
2021/08/21 06:44:03;;;;;;;15.73;9.23;;;17.40;99.90;;;;;;5092936;28;20450;-75
2021/08/21 06:46:31;;;;;;;10.27;8.53;;;17.50;99.90;;;;;;5086667;28;20182;-75
2021/08/21 06:49:00;;;;;;;8.87;7.97;;;17.70;99.90;;;;;;5087884;28;20213;-75
2021/08/21 06:51:29;;;;;;;10.70;8.10;;;17.90;99.90;;;;;;5081699;28;21271;-75
2021/08/21 06:53:57;;;;;;;12.30;9.00;;;18.00;99.90;;;;;;5077783;28;20205;-75
2021/08/21 06:56:26;;;;;;;10.77;7.60;;;18.30;99.90;;;;;;5082718;28;20172;-75
2021/08/21 06:58:54;;;;;;;10.80;8.20;;;18.50;99.90;;;;;;5086572;28;20180;-75
2021/08/21 07:01:22;;;;;;;8.07;7.30;;;18.70;99.90;;;;;;5079751;28;20226;-75
2021/08/21 07:03:51;;;;;;;9.67;7.20;;;18.90;99.90;;;;;;5079286;28;20305;-75
2021/08/21 07:06:19;;;;;;;10.60;7.87;;;19.00;99.90;;;;;;5087983;28;20176;-75
2021/08/21 07:08:49;;;;;;;7.77;6.33;;;19.10;99.90;;;;;;5078318;28;20255;-76
2021/08/21 07:11:17;;;;;;;7.40;6.30;;;19.20;99.90;;;;;;5088220;28;20184;-75
2021/08/21 07:13:46;;;;;;;8.83;6.03;;;19.40;99.90;;;;;;5085395;28;20419;-76
2021/08/21 07:16:15;;;;;;;7.00;6.30;;;19.50;99.90;;;;;;5085382;28;20188;-76
2021/08/21 07:18:44;;;;;;;9.23;6.27;;;19.50;99.90;;;;;;5084769;28;20230;-76
2021/08/21 07:21:12;;;;;;;8.83;6.47;;;19.60;99.90;;;;;;5091117;28;20180;-76
2021/08/21 07:23:41;;;;;;;9.27;6.73;;;19.70;99.90;;;;;;5083163;28;20168;-75
2021/08/21 07:26:10;;;;;;;7.97;6.50;;;19.80;99.90;;;;;;5083082;28;20369;-76
2021/08/21 07:28:39;;;;;;;8.50;6.00;;;19.90;99.90;;;;;;5087135;28;20358;-73
2021/08/21 07:31:07;;;;;;;7.43;6.10;;;20.20;99.90;;;;;;5088269;28;20220;-76
2021/08/21 07:33:35;;;;;;;8.67;5.60;;;20.40;99.90;;;;;;5083708;28;20176;-76
2021/08/21 07:36:04;;;;;;;12.43;6.57;;;20.50;99.90;;;;;;5091544;28;20516;-76
2021/08/21 07:38:32;;;;;;;7.20;5.60;;;20.50;99.90;;;;;;5078398;28;20543;-76
2021/08/21 07:41:01;;;;;;;6.13;5.53;;;20.50;99.90;;;;;;5083157;28;20188;-77
2021/08/21 07:43:31;;;;;;;5.53;4.93;;;20.50;99.90;;;;;;5084968;28;20176;-76
2021/08/21 07:45:59;;;;;;;5.10;4.60;;;20.60;99.90;;;;;;5084639;28;20184;-76
2021/08/21 07:48:27;;;;;;;5.80;4.70;;;20.60;99.90;;;;;;5085391;28;20176;-76
2021/08/21 07:50:56;;;;;;;5.00;4.30;;;20.70;99.90;;;;;;5085310;28;20450;-77
2021/08/21 07:53:24;;;;;;;5.17;4.53;;;20.60;99.90;;;;;;5084204;28;20420;-76
2021/08/21 07:55:52;;;;;;;7.07;4.53;;;21.00;99.90;;;;;;5087006;28;20339;-76
2021/08/21 07:58:20;;;;;;;4.87;4.40;;;21.20;99.90;;;;;;5084172;28;20180;-76
2021/08/21 08:00:50;;;;;;;5.47;4.73;;;21.40;99.90;;;;;;5083481;28;20207;-77
2021/08/21 08:03:18;;;;;;;6.57;5.00;;;21.30;99.90;;;;;;5083358;28;20176;-77
2021/08/21 08:05:47;;;;;;;4.43;4.13;;;21.40;99.90;;;;;;5084605;28;20210;-76
2021/08/21 08:08:15;;;;;;;4.43;4.10;;;21.40;99.90;;;;;;5082621;28;20234;-77
2021/08/21 08:10:43;;;;;;;6.33;4.13;;;21.60;99.90;;;;;;5070899;28;20174;-76
2021/08/21 08:13:11;;;;;;;5.47;4.07;;;21.80;99.90;;;;;;5081205;28;20180;-76
2021/08/21 08:15:40;;;;;;;4.53;4.13;;;22.10;99.90;;;;;;5082259;28;20526;-77
2021/08/21 08:18:09;;;;;;;4.57;4.10;;;22.00;99.90;;;;;;5084208;28;20170;-77
2021/08/21 08:20:38;;;;;;;6.23;4.13;;;22.10;99.90;;;;;;5082458;28;20176;-76
2021/08/21 08:23:06;;;;;;;5.20;3.97;;;22.20;99.90;;;;;;5079454;28;20192;-76
2021/08/21 08:25:35;;;;;;;3.47;3.27;;;22.30;99.90;;;;;;5082950;28;20180;-75
2021/08/21 08:28:03;;;;;;;3.90;3.50;;;22.20;99.90;;;;;;5082269;28;20181;-77
2021/08/21 08:30:31;;;;;;;4.03;3.63;;;22.40;99.90;;;;;;5083678;28;20177;-77
2021/08/21 08:33:00;;;;;;;4.47;3.13;;;22.60;99.90;;;;;;5080690;28;20181;-75
2021/08/21 08:35:29;;;;;;;4.10;3.70;;;22.60;99.90;;;;;;5079677;28;20378;-77
2021/08/21 08:37:57;;;;;;;4.57;3.40;;;22.60;99.90;;;;;;5078895;28;20183;-77
2021/08/21 08:40:27;;;;;;;3.80;3.50;;;22.70;99.90;;;;;;5081484;28;20256;-77
2021/08/21 08:42:56;;;;;;;4.07;3.60;;;23.00;99.90;;;;;;5081816;28;20190;-76
2021/08/21 08:45:24;;;;;;;4.63;3.83;;;23.20;99.90;;;;;;5069609;28;20180;-75
2021/08/21 08:47:54;;;;;;;4.17;3.13;;;23.50;99.90;;;;;;5069810;28;20319;-76
2021/08/21 08:50:23;;;;;;;4.33;3.20;;;23.40;99.90;;;;;;5069901;28;20231;-75
2021/08/21 08:52:53;;;;;;;2.97;2.77;;;23.70;99.90;;;;;;5074349;28;20186;-77
2021/08/21 08:55:22;;;;;;;2.50;2.33;;;23.90;99.90;;;;;;5080211;28;20244;-77
2021/08/21 08:57:53;;;;;;;2.33;2.23;;;24.00;99.90;;;;;;5083600;28;20206;-76
2021/08/21 09:00:24;;;;;;;2.30;2.20;;;24.20;99.90;;;;;;5080656;28;20183;-76
2021/08/21 09:02:55;;;;;;;2.73;2.53;;;24.40;99.90;;;;;;5079974;28;20387;-77
2021/08/21 09:05:26;;;;;;;2.30;2.20;;;24.50;99.90;;;;;;5082027;28;20222;-77
2021/08/21 09:07:57;;;;;;;2.20;2.10;;;24.50;99.90;;;;;;5078998;28;20318;-77
2021/08/21 09:10:27;;;;;;;2.77;2.37;;;24.60;99.90;;;;;;5060260;28;20391;-77
2021/08/21 09:13:05;;;;;;;2.50;2.40;;;24.60;99.90;;;;;;5075524;28;20246;-76
2021/08/21 09:15:35;;;;;;;4.03;2.03;;;24.70;99.90;;;;;;5079102;28;20200;-76
2021/08/21 09:18:09;;;;;;;1.80;1.70;;;24.90;99.90;;;;;;5078320;28;20180;-76
2021/08/21 09:20:55;;;;;;;1.50;1.50;;;24.90;99.90;;;;;;5077366;28;20266;-76
2021/08/21 09:23:27;;;;;;;1.80;1.70;;;25.00;99.90;;;;;;5078543;28;20181;-74
2021/08/21 09:26:04;;;;;;;1.70;1.70;;;25.10;99.90;;;;;;5079515;28;20188;-76
2021/08/21 09:28:33;;;;;;;2.00;1.80;;;25.50;99.90;;;;;;5075963;28;20180;-76
2021/08/21 09:31:05;;;;;;;2.00;1.93;;;25.50;99.90;;;;;;5076272;28;20494;-76
2021/08/21 09:33:34;;;;;;;1.73;1.70;;;25.60;99.90;;;;;;5079681;28;20188;-76
2021/08/21 09:36:02;;;;;;;1.45;1.45;;;26.00;99.90;;;;;;5076604;28;20212;-76
2021/08/21 09:38:33;;;;;;;1.70;1.60;;;26.20;99.90;;;;;;5076162;28;20357;-76
2021/08/21 09:41:04;;;;;;;1.60;1.60;;;26.30;99.90;;;;;;5077000;28;20173;-76
2021/08/21 09:43:35;;;;;;;2.30;1.50;;;26.20;99.90;;;;;;5078929;28;20185;-76
2021/08/21 09:46:14;;;;;;;1.70;1.70;;;26.10;99.90;;;;;;5075128;28;20189;-76
2021/08/21 09:49:00;;;;;;;1.50;1.50;;;25.90;99.90;;;;;;5078354;28;20690;-76
2021/08/21 09:51:41;;;;;;;1.80;1.70;;;26.00;99.90;;;;;;5080293;28;20183;-76
2021/08/21 09:54:15;;;;;;;1.90;1.80;;;25.80;99.90;;;;;;5082055;28;20423;-76
2021/08/21 09:56:44;;;;;;;1.60;1.60;;;25.80;99.90;;;;;;5082010;28;20200;-76
2021/08/21 09:59:13;;;;;;;1.50;1.50;;;26.00;99.90;;;;;;5084661;28;20189;-76
2021/08/21 10:01:45;;;;;;;2.47;1.80;;;26.30;99.90;;;;;;5072094;28;20189;-76
2021/08/21 10:04:14;;;;;;;2.58;1.85;;;26.40;99.90;;;;;;5082403;28;20184;-76
2021/08/21 10:06:42;;;;;;;1.80;1.70;;;26.30;99.90;;;;;;5081975;28;20173;-77
2021/08/21 10:09:12;;;;;;;1.67;1.52;;;26.30;99.90;;;;;;5079739;28;20325;-76
2021/08/21 10:11:42;;;;;;;2.55;2.13;;;26.30;99.90;;;;;;5078808;28;20173;-76
2021/08/21 10:14:13;;;;;;;1.80;1.80;;;26.40;99.90;;;;;;5079616;28;20193;-76
2021/08/21 10:16:44;;;;;;;2.67;2.00;;;26.60;99.90;;;;;;5081030;28;20199;-76
2021/08/21 10:19:13;;;;;;;1.70;1.70;;;26.70;99.90;;;;;;5083660;28;20243;-72
2021/08/21 10:21:41;;;;;;;2.00;1.90;;;26.80;99.90;;;;;;5074640;28;20190;-74
2021/08/21 10:24:10;;;;;;;2.00;1.90;;;26.80;99.90;;;;;;5073949;28;20232;-76
2021/08/21 10:26:41;;;;;;;1.98;1.80;;;26.70;99.90;;;;;;5081130;28;20448;-76
2021/08/21 10:29:12;;;;;;;1.98;1.70;;;26.80;99.90;;;;;;5081593;28;20224;-75
2021/08/21 10:31:43;;;;;;;2.03;1.65;;;26.70;99.90;;;;;;5079879;28;20228;-76
2021/08/21 10:34:13;;;;;;;4.50;2.20;;;26.80;99.90;;;;;;5085278;28;20180;-76
2021/08/21 10:36:52;;;;;;;1.85;1.80;;;26.70;99.90;;;;;;5080878;28;20202;-76
2021/08/21 10:39:33;;;;;;;2.03;1.63;;;26.70;99.90;;;;;;5074927;28;20189;-76
2021/08/21 10:42:28;;;;;;;1.85;1.85;;;27.10;99.90;;;;;;5081208;28;20188;-76
2021/08/21 10:44:57;;;;;;;2.10;2.00;;;27.20;99.90;;;;;;5079607;28;20187;-76
2021/08/21 10:47:41;;;;;;;2.28;2.17;;;27.20;99.90;;;;;;5079271;28;20183;-76
2021/08/21 10:50:31;;;;;;;1.90;1.80;;;27.10;99.90;;;;;;5077885;28;20169;-76
2021/08/21 10:53:00;;;;;;;1.98;1.88;;;27.30;99.90;;;;;;5081804;28;20194;-67
2021/08/21 10:55:35;;;;;;;1.77;1.77;;;27.30;99.90;;;;;;5085392;28;20190;-67
2021/08/21 10:58:13;;;;;;;1.90;1.90;;;27.40;99.90;;;;;;5072610;28;20280;-67
2021/08/21 11:00:47;;;;;;;2.05;1.98;;;27.60;99.90;;;;;;5079248;28;20484;-67
2021/08/21 11:03:17;;;;;;;1.98;1.90;;;27.80;99.90;;;;;;5080577;28;20190;-67
2021/08/21 11:05:58;;;;;;;3.13;1.92;;;27.80;99.90;;;;;;5082984;28;20181;-66
2021/08/21 11:08:27;;;;;;;2.08;1.83;;;27.40;99.90;;;;;;5099996;28;20228;-67
2021/08/21 11:11:26;;;;;;;2.10;2.00;;;27.00;99.90;;;;;;5081458;28;20201;-67
2021/08/21 11:14:00;;;;;;;1.92;1.92;;;27.20;99.90;;;;;;5080901;28;20410;-66
2021/08/21 11:16:48;;;;;;;1.83;1.83;;;27.50;99.90;;;;;;5080890;28;20220;-67
2021/08/21 11:19:39;;;;;;;3.38;2.30;;;27.20;99.90;;;;;;5079946;28;20174;-67
2021/08/21 11:22:30;;;;;;;3.20;2.45;;;27.30;99.90;;;;;;5081397;28;20205;-66
2021/08/21 11:25:10;;;;;;;2.33;2.22;;;27.20;99.90;;;;;;5079885;28;20185;-67
2021/08/21 11:27:43;;;;;;;5.22;2.70;;;26.90;99.90;;;;;;5083078;28;20278;-66
2021/08/21 11:30:27;;;;;;;2.70;2.50;;;26.70;99.90;;;;;;5095271;28;20196;-66
2021/08/21 11:33:13;;;;;;;2.53;2.33;;;26.50;99.90;;;;;;5083759;28;20306;-66
2021/08/21 11:35:48;;;;;;;2.40;2.30;;;26.60;99.90;;;;;;5082560;28;20428;-67
2021/08/21 11:38:18;;;;;;;2.87;2.57;;;26.80;99.90;;;;;;5088046;28;20340;-66
2021/08/21 11:40:49;;;;;;;2.53;2.30;;;26.90;99.90;;;;;;5083544;28;20197;-66
2021/08/21 11:43:21;;;;;;;7.37;2.60;;;27.00;99.90;;;;;;5077712;28;20180;-66
2021/08/21 11:45:51;;;;;;;2.72;2.53;;;27.10;99.90;;;;;;5080759;28;20478;-67
2021/08/21 11:48:20;;;;;;;2.88;2.28;;;26.90;99.90;;;;;;5079624;28;20180;-67
2021/08/21 11:50:49;;;;;;;2.83;2.63;;;26.70;99.90;;;;;;5081013;28;20208;-67
2021/08/21 11:53:21;;;;;;;2.83;2.63;;;26.50;99.90;;;;;;5097297;28;20188;-66
2021/08/21 11:55:51;;;;;;;2.63;2.43;;;26.50;99.90;;;;;;5080994;28;20273;-67
2021/08/21 11:58:28;;;;;;;2.67;2.47;;;26.40;99.90;;;;;;5082053;28;20355;-66
2021/08/21 12:01:21;;;;;;;2.63;2.43;;;26.30;99.90;;;;;;5078298;28;20192;-67
2021/08/21 12:06:37;;;;;;;2.93;2.77;;;26.90;99.90;;;;;;5079393;28;20176;-66
2021/08/21 12:09:09;;;;;;;2.93;2.50;;;27.00;99.90;;;;;;5082023;28;20705;-66
2021/08/21 12:11:39;;;;;;;3.30;3.00;;;27.10;99.90;;;;;;5079359;28;20193;-67
2021/08/21 12:14:08;;;;;;;2.60;2.50;;;27.30;99.90;;;;;;5081429;28;20178;-66
2021/08/21 12:16:38;;;;;;;3.23;2.90;;;27.50;99.90;;;;;;5085666;28;20196;-66
2021/08/21 12:19:07;;;;;;;3.10;2.90;;;27.40;99.90;;;;;;5086640;28;20191;-66
2021/08/21 12:21:37;;;;;;;3.13;2.93;;;27.00;99.90;;;;;;5079425;28;20364;-66
2021/08/21 12:24:10;;;;;;;3.37;3.17;;;26.60;99.90;;;;;;5077269;28;20199;-66
2021/08/21 12:26:41;;;;;;;5.27;3.00;;;26.60;99.90;;;;;;5084844;28;20218;-66
2021/08/21 12:29:25;;;;;;;5.50;3.67;;;26.60;99.90;;;;;;5081988;28;20180;-66
2021/08/21 12:31:56;;;;;;;3.40;3.10;;;26.90;99.90;;;;;;5080619;28;20274;-66
2021/08/21 12:34:27;;;;;;;3.00;2.80;;;26.80;99.90;;;;;;5084975;28;20184;-67
2021/08/21 12:36:57;;;;;;;3.23;3.03;;;26.80;99.90;;;;;;5077937;28;20205;-66
2021/08/21 12:39:27;;;;;;;3.17;2.97;;;26.90;99.90;;;;;;5086822;28;20176;-66
2021/08/21 12:41:57;;;;;;;2.90;2.80;;;26.80;99.90;;;;;;5083595;28;20180;-66
2021/08/21 12:44:34;;;;;;;4.43;3.17;;;26.70;99.90;;;;;;5084944;28;20360;-67
2021/08/21 12:47:07;;;;;;;3.13;2.77;;;26.80;99.90;;;;;;5078697;28;20181;-66
2021/08/21 12:49:37;;;;;;;3.03;2.83;;;26.80;99.90;;;;;;5077735;28;20185;-66
2021/08/21 12:52:08;;;;;;;8.93;2.90;;;26.70;99.90;;;;;;5077221;28;20218;-66
2021/08/21 12:54:38;;;;;;;3.30;3.00;;;26.60;99.90;;;;;;5079172;28;20188;-66
2021/08/21 12:57:09;;;;;;;3.23;2.90;;;26.80;99.90;;;;;;5079926;28;20509;-66